Terminal Aerodrome Forecast
Issued by NWS Detroit/Pontiac, MI

Home | Current Version | Previous Version | Text Only | Print | Product List | Glossary On
Versions: 1 2 3 4 5 6 7 8 9 10 11 12 13 14 15 16 17 18
000
FTUS43 KDTX 300910 AAA
TAFFNT
TAF AMD
KFNT 300910Z 3009/3106 27013G20KT P6SM BKN050
     FM301400 28012KT P6SM SCT030
     FM301800 29016G26KT P6SM SCT035 SCT200
     FM310100 VRB05KT P6SM BKN150=

USA.gov is the U.S. government's official web portal to all federal, state and local government web resources and services.